createdAt,value
2022-10-14T00:01:33.231Z,23.93
2022-10-14T00:04:02.715Z,20.33
2022-10-14T00:06:33.377Z,21.73
2022-10-14T00:09:05.753Z,25.07
2022-10-14T00:11:35.938Z,21.83
2022-10-14T00:14:06.901Z,23.70
2022-10-14T00:16:38.463Z,22.67
2022-10-14T00:19:08.220Z,23.57
2022-10-14T00:21:38.816Z,23.70
2022-10-14T00:24:10.082Z,21.90
2022-10-14T00:26:40.695Z,23.10
2022-10-14T00:29:13.241Z,23.30
2022-10-14T00:31:42.175Z,26.17
2022-10-14T00:34:13.177Z,29.23
2022-10-14T00:36:43.400Z,26.97
2022-10-14T00:39:13.491Z,27.27
2022-10-14T00:41:42.592Z,26.73
2022-10-14T00:44:44.363Z,23.83
2022-10-14T00:47:13.735Z,26.37
2022-10-14T00:49:44.791Z,25.57
2022-10-14T00:52:17.793Z,24.93
2022-10-14T00:54:53.151Z,24.50
2022-10-14T00:57:23.107Z,23.43
2022-10-14T00:59:52.462Z,23.93
2022-10-14T01:02:21.101Z,23.70
2022-10-14T01:04:49.864Z,24.40
2022-10-14T01:07:28.126Z,23.63
2022-10-14T01:10:06.202Z,21.87
2022-10-14T01:12:44.007Z,22.80
2022-10-14T01:15:22.032Z,23.67
2022-10-14T01:18:03.289Z,21.87
2022-10-14T01:20:56.951Z,21.20
2022-10-14T01:23:45.116Z,23.03
2022-10-14T01:26:28.520Z,20.87
2022-10-14T01:29:15.168Z,21.67
2022-10-14T01:31:48.590Z,22.20
2022-10-14T01:34:26.612Z,19.73
2022-10-14T01:37:01.561Z,22.00
2022-10-14T01:39:34.140Z,22.03
2022-10-14T01:42:06.244Z,21.57
2022-10-14T01:44:39.526Z,21.53
2022-10-14T01:47:11.030Z,23.37
2022-10-14T01:49:45.408Z,20.93
2022-10-14T01:52:21.297Z,21.87
2022-10-14T01:54:53.874Z,21.43
2022-10-14T01:57:27.509Z,21.50
2022-10-14T01:59:58.488Z,21.03
2022-10-14T02:02:28.921Z,22.67
2022-10-14T02:04:58.042Z,23.07
2022-10-14T02:07:31.946Z,22.70
2022-10-14T02:10:14.990Z,23.53
2022-10-14T02:13:06.451Z,23.80
2022-10-14T02:15:41.480Z,25.63
2022-10-14T02:18:17.939Z,26.77
2022-10-14T02:20:54.953Z,25.33
2022-10-14T02:23:28.208Z,26.07
2022-10-14T02:25:57.696Z,25.73
2022-10-14T02:28:30.219Z,25.27
2022-10-14T02:31:02.533Z,24.40
2022-10-14T02:33:35.927Z,26.03
2022-10-14T02:36:07.087Z,25.57
2022-10-14T02:38:36.833Z,25.13
2022-10-14T02:41:09.238Z,24.90
2022-10-14T02:43:38.103Z,22.57
2022-10-14T02:46:07.227Z,22.33
2022-10-14T02:48:37.463Z,24.80
2022-10-14T02:51:06.322Z,24.87
2022-10-14T02:53:34.975Z,26.37
2022-10-14T02:56:03.637Z,26.00
2022-10-14T02:58:32.497Z,25.67
2022-10-14T03:01:01.151Z,25.80
2022-10-14T03:03:30.042Z,27.17
2022-10-14T03:06:00.326Z,24.57
2022-10-14T03:08:29.059Z,24.70
2022-10-14T03:10:58.064Z,26.37
2022-10-14T03:13:26.863Z,25.03
2022-10-14T03:15:55.588Z,27.70
2022-10-14T03:18:24.167Z,28.77
2022-10-14T03:20:52.923Z,25.27
2022-10-14T03:23:23.072Z,27.53
2022-10-14T03:25:51.858Z,24.83
2022-10-14T03:28:20.580Z,24.53
2022-10-14T03:30:49.342Z,24.23
2022-10-14T03:33:20.505Z,24.67
2022-10-14T03:35:49.571Z,29.07
2022-10-14T03:38:18.427Z,28.43
2022-10-14T03:40:48.636Z,26.70
2022-10-14T03:43:17.360Z,28.67
2022-10-14T03:45:46.648Z,29.27
2022-10-14T03:48:15.340Z,26.93
2022-10-14T03:50:44.068Z,27.00
2022-10-14T03:53:13.279Z,27.37
2022-10-14T03:55:42.538Z,25.67
2022-10-14T03:58:13.318Z,28.08
2022-10-14T04:00:42.077Z,23.83
2022-10-14T04:03:10.790Z,25.20
2022-10-14T04:05:39.476Z,25.33
2022-10-14T04:08:08.818Z,27.73
2022-10-14T04:10:37.480Z,27.70
2022-10-14T04:13:06.199Z,26.50
2022-10-14T04:15:37.470Z,24.63
2022-10-14T04:18:06.222Z,26.47
2022-10-14T04:20:34.920Z,26.50
2022-10-14T04:23:03.623Z,26.30
2022-10-14T04:25:32.419Z,26.20
2022-10-14T04:28:01.091Z,25.97
2022-10-14T04:30:29.855Z,27.37
2022-10-14T04:33:00.288Z,29.17
2022-10-14T04:35:29.026Z,30.87
2022-10-14T04:37:57.657Z,37.55
2022-10-14T04:40:26.671Z,27.97
2022-10-14T04:42:58.288Z,28.90
2022-10-14T04:45:27.370Z,26.27
2022-10-14T04:47:55.978Z,27.57
2022-10-14T04:50:26.211Z,29.33
2022-10-14T04:52:54.854Z,32.42
2022-10-14T04:55:23.502Z,29.20
2022-10-14T04:57:52.134Z,29.93
2022-10-14T05:00:21.038Z,32.57
2022-10-14T05:02:49.702Z,28.50
2022-10-14T05:05:18.816Z,29.17
2022-10-14T05:07:48.853Z,28.70
2022-10-14T05:10:17.725Z,29.43
2022-10-14T05:12:46.524Z,30.27
2022-10-14T05:15:15.447Z,27.20
2022-10-14T05:17:45.016Z,28.57
2022-10-14T05:20:13.941Z,27.17
2022-10-14T05:22:42.605Z,27.73
2022-10-14T05:25:14.732Z,26.13
2022-10-14T05:27:45.482Z,28.73
2022-10-14T05:30:18.308Z,27.80
2022-10-14T05:32:46.983Z,26.67
2022-10-14T05:35:15.729Z,26.33
2022-10-14T05:37:44.421Z,26.83
2022-10-14T05:40:14.823Z,27.93
2022-10-14T05:42:43.539Z,27.67
2022-10-14T05:45:12.750Z,26.10
2022-10-14T05:47:41.356Z,26.70
2022-10-14T05:50:10.425Z,25.23
2022-10-14T05:52:42.449Z,26.43
2022-10-14T05:55:11.501Z,25.97
2022-10-14T05:57:43.797Z,27.43
2022-10-14T06:00:14.253Z,30.23
2022-10-14T06:02:42.919Z,28.30
2022-10-14T06:05:11.682Z,31.27
2022-10-14T06:07:40.319Z,28.30
2022-10-14T06:10:16.485Z,26.93
2022-10-14T06:12:46.569Z,29.23
2022-10-14T06:15:15.328Z,29.20
2022-10-14T06:17:43.982Z,27.30
2022-10-14T06:20:13.111Z,30.07
2022-10-14T06:22:41.752Z,29.97
2022-10-14T06:25:11.015Z,34.83
2022-10-14T06:27:39.944Z,28.30
2022-10-14T06:30:11.777Z,28.10
2022-10-14T06:32:40.499Z,25.47
2022-10-14T06:35:09.974Z,24.50
2022-10-14T06:37:38.756Z,28.73
2022-10-14T06:40:08.454Z,28.30
2022-10-14T06:42:37.088Z,29.47
2022-10-14T06:45:06.473Z,29.07
2022-10-14T06:47:36.604Z,30.00
2022-10-14T06:50:05.858Z,31.07
2022-10-14T06:52:34.545Z,30.20
2022-10-14T06:55:03.293Z,29.93
2022-10-14T06:57:32.046Z,30.80
2022-10-14T07:00:00.743Z,28.67
2022-10-14T07:02:29.614Z,28.00
2022-10-14T07:05:00.655Z,29.90
2022-10-14T07:07:29.631Z,29.93
2022-10-14T07:09:58.962Z,31.27
2022-10-14T07:12:27.760Z,34.63
2022-10-14T07:14:57.663Z,34.80
2022-10-14T07:17:27.796Z,28.63
2022-10-14T07:19:57.172Z,28.37
2022-10-14T07:22:28.045Z,28.97
2022-10-14T07:24:57.287Z,28.47
2022-10-14T07:27:26.878Z,29.27
2022-10-14T07:30:00.132Z,29.87
2022-10-14T07:32:29.207Z,28.53
2022-10-14T07:34:58.347Z,29.53
2022-10-14T07:37:28.561Z,30.90
2022-10-14T07:39:57.366Z,28.10
2022-10-14T07:42:26.465Z,31.30
2022-10-14T07:44:58.573Z,29.30
2022-10-14T07:47:27.359Z,30.43
2022-10-14T07:50:07.444Z,29.03
2022-10-14T07:52:37.959Z,29.10
2022-10-14T07:55:07.953Z,29.07
2022-10-14T07:57:36.657Z,29.13
2022-10-14T08:00:05.981Z,31.63
2022-10-14T08:02:34.619Z,30.33
2022-10-14T08:05:25.614Z,52.10
2022-10-14T08:08:01.021Z,43.10
2022-10-14T08:10:30.782Z,42.50
2022-10-14T08:13:00.646Z,71.87
2022-10-14T08:15:30.588Z,60.53
2022-10-14T08:17:59.543Z,29.50
2022-10-14T08:20:28.191Z,39.07
2022-10-14T08:22:58.204Z,93.33
2022-10-14T08:25:26.800Z,84.07
2022-10-14T08:27:57.707Z,37.00
2022-10-14T08:30:26.692Z,33.77
2022-10-14T08:32:55.456Z,26.43
2022-10-14T08:35:24.408Z,23.50
2022-10-14T08:38:01.038Z,21.97
2022-10-14T08:40:31.226Z,24.33
2022-10-14T08:43:06.447Z,23.57
2022-10-14T08:45:39.011Z,26.33
2022-10-14T08:48:13.953Z,21.33
2022-10-14T08:50:48.228Z,25.70
2022-10-14T08:53:21.569Z,23.80
2022-10-14T08:55:52.856Z,26.03
2022-10-14T08:58:29.012Z,30.10
2022-10-14T09:00:58.489Z,23.10
2022-10-14T09:03:33.468Z,28.90
2022-10-14T09:06:05.632Z,30.23
2022-10-14T09:08:42.398Z,34.83
2022-10-14T09:11:15.563Z,37.20
2022-10-14T09:13:47.092Z,44.90
2022-10-14T09:16:20.014Z,33.87
2022-10-14T09:18:54.822Z,35.03
2022-10-14T09:21:48.022Z,38.17
2022-10-14T09:24:23.370Z,31.83
2022-10-14T09:29:32.431Z,38.10
2022-10-14T09:32:05.364Z,40.90
2022-10-14T09:34:38.144Z,36.80
2022-10-14T09:37:24.642Z,35.90
2022-10-14T09:39:57.885Z,34.80
2022-10-14T09:42:29.343Z,37.20
2022-10-14T09:45:10.784Z,38.73
2022-10-14T09:47:52.597Z,38.27
2022-10-14T09:50:28.059Z,35.20
2022-10-14T09:53:02.990Z,27.50
2022-10-14T09:55:34.088Z,29.67
2022-10-14T09:58:07.264Z,29.03
2022-10-14T10:00:39.293Z,135.95
2022-10-14T10:03:11.566Z,37.93
2022-10-14T10:05:43.559Z,33.60
2022-10-14T10:08:19.276Z,35.50
2022-10-14T10:11:06.696Z,34.37
2022-10-14T10:13:44.975Z,32.60
2022-10-14T10:16:25.856Z,29.83
2022-10-14T10:18:57.403Z,29.60
2022-10-14T10:21:27.821Z,29.67
2022-10-14T10:24:02.305Z,29.97
2022-10-14T10:26:34.623Z,26.67
2022-10-14T10:29:06.006Z,27.80
2022-10-14T10:32:06.942Z,31.27
2022-10-14T10:35:07.586Z,29.03
2022-10-14T10:37:46.975Z,28.00
2022-10-14T10:40:39.052Z,28.42
2022-10-14T10:43:39.864Z,25.83
2022-10-14T10:46:20.940Z,61.53
2022-10-14T10:48:56.061Z,132.38
2022-10-14T10:51:39.636Z,27.23
2022-10-14T10:54:15.643Z,27.60
2022-10-14T10:56:51.513Z,26.13
2022-10-14T10:59:41.207Z,27.23
2022-10-14T11:02:39.060Z,25.67
2022-10-14T11:05:17.120Z,26.20
2022-10-14T11:08:12.275Z,25.63
2022-10-14T11:11:09.132Z,31.73
2022-10-14T11:13:47.705Z,27.33
2022-10-14T11:16:27.424Z,26.80
2022-10-14T11:19:03.527Z,25.37
2022-10-14T11:21:42.705Z,26.27
2022-10-14T11:24:21.473Z,30.10
2022-10-14T11:27:11.410Z,24.60
2022-10-14T11:30:07.654Z,23.37
2022-10-14T11:32:48.899Z,21.23
2022-10-14T11:38:19.520Z,29.52
2022-10-14T11:40:57.826Z,25.73
2022-10-14T11:43:35.842Z,25.00
2022-10-14T11:46:09.193Z,27.70
2022-10-14T11:48:43.558Z,27.57
2022-10-14T11:51:18.932Z,26.95
2022-10-14T11:53:56.133Z,28.60
2022-10-14T11:56:44.937Z,28.75
2022-10-14T11:59:29.189Z,26.87
2022-10-14T12:02:02.929Z,27.65
2022-10-14T12:04:37.040Z,28.27
2022-10-14T12:07:11.446Z,31.83
2022-10-14T12:09:45.110Z,33.07
2022-10-14T12:12:16.103Z,33.85
2022-10-14T12:14:50.420Z,38.63
2022-10-14T12:17:25.613Z,36.23
2022-10-14T12:19:56.774Z,39.90
2022-10-14T12:22:29.491Z,39.23
2022-10-14T12:25:03.144Z,37.47
2022-10-14T12:27:32.458Z,43.15
2022-10-14T12:30:03.080Z,39.70
2022-10-14T12:32:33.331Z,39.67
2022-10-14T12:35:04.206Z,40.40
2022-10-14T12:37:50.438Z,42.40
2022-10-14T12:40:30.342Z,39.42
2022-10-14T12:43:19.263Z,41.13
2022-10-14T12:46:13.458Z,38.53
2022-10-14T12:48:51.247Z,36.20
2022-10-14T12:51:23.429Z,36.25
2022-10-14T12:54:09.034Z,37.00
2022-10-14T12:56:43.641Z,40.65
2022-10-14T12:59:25.704Z,39.92
2022-10-14T13:02:00.371Z,39.40
2022-10-14T13:04:29.627Z,38.40
2022-10-14T13:07:40.029Z,36.50
2022-10-14T13:10:48.583Z,38.80
2022-10-14T13:13:50.398Z,36.05
2022-10-14T13:17:08.324Z,39.37
2022-10-14T13:19:48.108Z,36.20
2022-10-14T13:22:45.721Z,36.78
2022-10-14T13:25:29.153Z,34.53
2022-10-14T13:28:15.505Z,37.67
2022-10-14T13:31:00.294Z,38.15
2022-10-14T13:33:38.638Z,36.10
2022-10-14T13:36:16.486Z,40.17
2022-10-14T13:38:53.351Z,40.65
2022-10-14T13:41:30.790Z,39.28
2022-10-14T13:44:01.457Z,41.13
2022-10-14T13:46:33.549Z,41.83
2022-10-14T13:49:04.583Z,38.65
2022-10-14T13:51:45.629Z,46.87
2022-10-14T13:54:20.904Z,41.42
2022-10-14T13:57:38.705Z,40.22
2022-10-14T14:00:38.981Z,35.90
2022-10-14T14:02:48.102Z,34.37
2022-10-14T14:05:21.282Z,32.60
2022-10-14T14:11:03.773Z,32.85
2022-10-14T14:13:31.671Z,34.27
2022-10-14T14:16:00.845Z,37.33
2022-10-14T14:18:49.093Z,35.87
2022-10-14T14:21:25.487Z,35.33
2022-10-14T14:23:56.217Z,35.80
2022-10-14T14:26:34.167Z,34.93
2022-10-14T14:29:06.352Z,35.50
2022-10-14T14:34:25.763Z,207.70
2022-10-14T14:36:58.068Z,66.43
2022-10-14T14:39:34.170Z,44.20
2022-10-14T14:42:04.226Z,46.13
2022-10-14T14:44:35.619Z,45.50
2022-10-14T14:47:06.249Z,44.23
2022-10-14T14:49:38.538Z,44.70
2022-10-14T14:52:08.127Z,40.83
2022-10-14T14:54:45.828Z,43.03
2022-10-14T14:57:20.028Z,39.77
2022-10-14T14:59:57.354Z,40.83
2022-10-14T15:02:26.566Z,41.43
2022-10-14T15:05:03.086Z,39.93
2022-10-14T15:07:32.002Z,43.15
2022-10-14T15:10:03.339Z,49.97
2022-10-14T15:12:39.354Z,44.00
2022-10-14T15:15:26.491Z,34.40
2022-10-14T15:18:13.288Z,31.20
2022-10-14T15:20:43.381Z,33.27
2022-10-14T15:23:47.364Z,35.23
2022-10-14T15:26:30.066Z,35.07
2022-10-14T15:29:15.468Z,31.17
2022-10-14T15:31:46.046Z,31.03
2022-10-14T15:34:22.843Z,32.17
2022-10-14T15:36:54.715Z,38.80
2022-10-14T15:39:25.746Z,31.80
2022-10-14T15:41:54.648Z,34.70
2022-10-14T15:44:24.812Z,37.93
2022-10-14T15:47:11.061Z,36.40
2022-10-14T15:49:42.963Z,45.10
2022-10-14T15:52:16.109Z,49.63
2022-10-14T15:54:46.303Z,42.80
2022-10-14T15:57:16.660Z,49.43
2022-10-14T15:59:47.195Z,56.30
2022-10-14T16:02:19.804Z,40.03
2022-10-14T16:05:07.588Z,43.67
2022-10-14T16:07:38.909Z,45.63
2022-10-14T16:10:09.834Z,38.67
2022-10-14T16:12:39.179Z,40.57
2022-10-14T16:15:32.891Z,40.47
2022-10-14T16:18:02.359Z,50.43
2022-10-14T16:20:31.944Z,44.50
2022-10-14T16:23:01.621Z,44.27
2022-10-14T16:25:35.358Z,48.70
2022-10-14T16:28:07.589Z,45.40
2022-10-14T16:30:42.230Z,36.67
2022-10-14T16:35:40.623Z,49.83
2022-10-14T16:38:10.857Z,47.80
2022-10-14T16:40:39.711Z,47.90
2022-10-14T16:43:08.969Z,48.77
2022-10-14T16:45:37.642Z,60.43
2022-10-14T16:48:07.828Z,49.73
2022-10-14T16:50:36.416Z,42.27
2022-10-14T16:53:22.602Z,39.30
2022-10-14T16:55:51.133Z,36.07
2022-10-14T16:58:19.944Z,41.57
2022-10-14T17:01:42.260Z,42.20
2022-10-14T17:04:13.537Z,43.77
2022-10-14T17:06:42.435Z,48.50
2022-10-14T17:09:11.974Z,44.37
2022-10-14T17:11:41.382Z,68.47
2022-10-14T17:14:12.550Z,101.63
2022-10-14T17:16:41.194Z,110.47
2022-10-14T17:19:12.822Z,80.83
2022-10-14T17:21:41.525Z,80.30
2022-10-14T17:24:10.343Z,64.27
2022-10-14T17:26:38.964Z,50.97
2022-10-14T17:29:07.553Z,53.43
2022-10-14T17:31:38.079Z,56.13
2022-10-14T17:34:07.146Z,106.37
2022-10-14T17:36:37.597Z,114.37
2022-10-14T17:39:06.474Z,150.17
2022-10-14T17:41:35.276Z,158.17
2022-10-14T17:44:04.793Z,62.40
2022-10-14T17:46:34.991Z,43.30
2022-10-14T17:49:05.212Z,41.47
2022-10-14T17:51:34.551Z,35.87
2022-10-14T17:54:08.298Z,36.53
2022-10-14T17:56:38.473Z,40.07
2022-10-14T17:59:09.640Z,39.70
2022-10-14T18:04:27.588Z,40.23
2022-10-14T18:06:59.168Z,43.33
2022-10-14T18:09:29.488Z,36.23
2022-10-14T18:12:13.617Z,38.80
2022-10-14T18:14:43.031Z,36.70
2022-10-14T18:17:12.932Z,40.83
2022-10-14T18:19:51.966Z,36.73
2022-10-14T18:22:21.062Z,37.13
2022-10-14T18:24:51.143Z,36.63
2022-10-14T18:27:19.974Z,39.33
2022-10-14T18:29:48.798Z,35.77
2022-10-14T18:32:18.082Z,37.27
2022-10-14T18:34:46.843Z,38.77
2022-10-14T18:37:15.565Z,37.47
2022-10-14T18:39:44.893Z,40.83
2022-10-14T18:42:18.435Z,39.53
2022-10-14T18:44:49.535Z,40.63
2022-10-14T18:47:18.267Z,37.90
2022-10-14T18:49:47.201Z,37.70
2022-10-14T18:52:15.889Z,39.23
2022-10-14T18:54:44.583Z,37.77
2022-10-14T18:57:17.463Z,38.17
2022-10-14T18:59:46.823Z,37.60
2022-10-14T19:02:16.243Z,36.47
2022-10-14T19:04:45.132Z,36.33
2022-10-14T19:07:13.952Z,35.37
2022-10-14T19:09:42.672Z,36.80
2022-10-14T19:12:25.337Z,37.90
2022-10-14T19:14:55.699Z,35.93
2022-10-14T19:17:24.374Z,38.07
2022-10-14T19:19:53.413Z,38.53
2022-10-14T19:22:22.611Z,40.47
2022-10-14T19:24:51.675Z,39.63
2022-10-14T19:27:20.684Z,38.40
2022-10-14T19:29:49.640Z,38.47
2022-10-14T19:32:19.799Z,37.80
2022-10-14T19:34:48.684Z,38.67
2022-10-14T19:37:17.466Z,38.93
2022-10-14T19:39:46.256Z,40.80
2022-10-14T19:42:14.982Z,39.40
2022-10-14T19:44:43.657Z,38.07
2022-10-14T19:47:12.940Z,39.87
2022-10-14T19:49:43.167Z,42.33
2022-10-14T19:52:11.976Z,41.30
2022-10-14T19:54:40.673Z,59.23
2022-10-14T19:57:09.607Z,44.10
2022-10-14T19:59:38.308Z,44.20
2022-10-14T20:02:07.128Z,42.40
2022-10-14T20:04:35.970Z,40.37
2022-10-14T20:07:06.114Z,40.17
2022-10-14T20:09:34.765Z,40.67
2022-10-14T20:12:03.419Z,39.10
2022-10-14T20:14:32.035Z,39.97
2022-10-14T20:17:02.173Z,39.90
2022-10-14T20:19:31.165Z,39.70
2022-10-14T20:22:01.811Z,39.77
2022-10-14T20:24:32.521Z,40.87
2022-10-14T20:27:01.183Z,40.03
2022-10-14T20:29:29.839Z,41.67
2022-10-14T20:31:58.936Z,39.60
2022-10-14T20:34:27.595Z,39.60
2022-10-14T20:36:56.332Z,39.10
2022-10-14T20:39:25.090Z,38.97
2022-10-14T20:41:55.859Z,39.87
2022-10-14T20:44:24.713Z,40.00
2022-10-14T20:46:53.481Z,37.90
2022-10-14T20:49:22.176Z,41.20
2022-10-14T20:51:50.807Z,38.63
2022-10-14T20:54:19.606Z,38.57
2022-10-14T20:56:48.280Z,38.00
2022-10-14T20:59:18.610Z,39.33
2022-10-14T21:01:47.562Z,38.57
2022-10-14T21:04:16.376Z,40.37
2022-10-14T21:06:45.276Z,39.70
2022-10-14T21:09:14.306Z,41.00
2022-10-14T21:11:44.391Z,39.65
2022-10-14T21:14:13.021Z,40.90
2022-10-14T21:16:43.100Z,40.00
2022-10-14T21:19:12.676Z,41.10
2022-10-14T21:21:45.585Z,39.87
2022-10-14T21:24:16.821Z,37.50
2022-10-14T21:26:46.625Z,37.70
2022-10-14T21:29:17.515Z,41.50
2022-10-14T21:31:48.248Z,41.27
2022-10-14T21:34:17.598Z,40.73
2022-10-14T21:36:46.654Z,40.20
2022-10-14T21:39:18.109Z,39.87
2022-10-14T21:41:47.383Z,42.57
2022-10-14T21:44:18.216Z,39.17
2022-10-14T21:46:48.979Z,39.83
2022-10-14T21:49:18.443Z,38.37
2022-10-14T21:51:47.149Z,40.77
2022-10-14T21:54:15.896Z,41.37
2022-10-14T21:56:44.689Z,41.70
2022-10-14T21:59:13.661Z,42.63
2022-10-14T22:01:43.040Z,48.80
2022-10-14T22:04:13.285Z,49.37
2022-10-14T22:06:41.956Z,50.90
2022-10-14T22:09:10.643Z,55.20
2022-10-14T22:11:41.167Z,50.83
2022-10-14T22:14:13.942Z,55.97
2022-10-14T22:16:42.673Z,50.93
2022-10-14T22:19:13.961Z,50.20
2022-10-14T22:21:45.150Z,48.07
2022-10-14T22:24:14.187Z,49.30
2022-10-14T22:26:43.126Z,50.57
2022-10-14T22:29:15.184Z,51.50
2022-10-14T22:31:44.331Z,48.47
2022-10-14T22:34:16.451Z,51.10
2022-10-14T22:36:45.657Z,49.33
2022-10-14T22:39:16.570Z,50.63
2022-10-14T22:41:45.534Z,45.13
2022-10-14T22:44:14.205Z,44.10
2022-10-14T22:46:43.030Z,44.57
2022-10-14T22:49:11.831Z,43.63
2022-10-14T22:51:42.207Z,45.87
2022-10-14T22:54:11.368Z,46.73
2022-10-14T22:56:40.348Z,46.57
2022-10-14T22:59:11.709Z,46.17
2022-10-14T23:01:41.360Z,46.73
2022-10-14T23:04:10.548Z,46.70
2022-10-14T23:06:40.169Z,46.20
2022-10-14T23:09:10.266Z,49.67
2022-10-14T23:11:38.873Z,49.20
2022-10-14T23:14:07.712Z,48.77
2022-10-14T23:16:36.938Z,47.77
2022-10-14T23:19:05.835Z,49.40
2022-10-14T23:21:36.428Z,49.67
2022-10-14T23:24:07.252Z,50.43
2022-10-14T23:26:37.948Z,52.47
2022-10-14T23:29:10.035Z,51.97
2022-10-14T23:31:40.510Z,52.73
2022-10-14T23:34:12.152Z,51.23
2022-10-14T23:36:41.406Z,51.50
2022-10-14T23:39:10.681Z,52.13
2022-10-14T23:41:40.964Z,51.03
2022-10-14T23:44:09.621Z,52.10
2022-10-14T23:46:38.201Z,51.30
2022-10-14T23:49:21.152Z,52.37
2022-10-14T23:51:53.832Z,53.70
2022-10-14T23:54:22.601Z,53.57
2022-10-14T23:56:53.094Z,55.50
2022-10-14T23:59:21.693Z,57.87
